createdAt,value
2022-10-13T00:01:21.810Z,16.50
2022-10-13T00:03:50.590Z,16.40
2022-10-13T00:06:25.101Z,17.40
2022-10-13T00:08:54.204Z,17.60
2022-10-13T00:11:25.751Z,17.60
2022-10-13T00:13:57.813Z,18.30
2022-10-13T00:16:27.421Z,18.50
2022-10-13T00:18:55.711Z,17.60
2022-10-13T00:21:26.943Z,20.50
2022-10-13T00:23:55.696Z,24.70
2022-10-13T00:26:25.444Z,24.00
2022-10-13T00:28:55.588Z,22.80
2022-10-13T00:31:32.048Z,23.00
2022-10-13T00:34:01.942Z,21.50
2022-10-13T00:36:30.709Z,26.50
2022-10-13T00:38:59.212Z,26.10
2022-10-13T00:41:27.384Z,24.50
2022-10-13T00:44:01.295Z,25.60
2022-10-13T00:46:32.436Z,26.30
2022-10-13T00:49:10.030Z,23.90
2022-10-13T00:51:42.311Z,21.20
2022-10-13T00:54:14.366Z,22.20
2022-10-13T00:56:43.183Z,21.60
2022-10-13T00:59:22.817Z,23.40
2022-10-13T01:01:51.884Z,23.80
2022-10-13T01:04:23.649Z,24.00
2022-10-13T01:06:52.807Z,21.10
2022-10-13T01:09:21.020Z,22.40
2022-10-13T01:12:26.467Z,21.40
2022-10-13T01:15:07.953Z,20.10
2022-10-13T01:17:38.793Z,20.70
2022-10-13T01:20:12.599Z,20.90
2022-10-13T01:22:46.367Z,18.30
2022-10-13T01:25:23.381Z,20.30
2022-10-13T01:28:28.954Z,21.40
2022-10-13T01:31:07.453Z,16.30
2022-10-13T01:33:45.247Z,17.50
2022-10-13T01:36:31.033Z,16.60
2022-10-13T01:39:13.442Z,16.20
2022-10-13T01:41:49.704Z,16.50
2022-10-13T01:44:26.149Z,16.10
2022-10-13T01:46:55.401Z,15.40
2022-10-13T01:49:31.941Z,16.50
2022-10-13T01:52:04.826Z,17.10
2022-10-13T01:54:34.026Z,16.60
2022-10-13T01:57:02.298Z,17.10
2022-10-13T01:59:36.418Z,18.20
2022-10-13T02:02:40.220Z,47.00
2022-10-13T02:05:27.650Z,76.50
2022-10-13T02:07:58.587Z,33.70
2022-10-13T02:10:51.539Z,23.80
2022-10-13T02:13:24.936Z,19.80
2022-10-13T02:15:59.253Z,18.60
2022-10-13T02:18:32.362Z,18.30
2022-10-13T02:21:01.949Z,17.20
2022-10-13T02:23:30.606Z,18.30
2022-10-13T02:25:59.731Z,17.80
2022-10-13T02:28:28.556Z,17.00
2022-10-13T02:30:58.335Z,15.30
2022-10-13T02:33:26.402Z,17.00
2022-10-13T02:35:54.389Z,16.90
2022-10-13T02:38:22.654Z,16.00
2022-10-13T02:40:50.821Z,16.80
2022-10-13T02:43:18.892Z,20.90
2022-10-13T02:45:46.861Z,23.70
2022-10-13T02:48:14.931Z,22.80
2022-10-13T02:50:43.004Z,23.80
2022-10-13T02:53:11.074Z,22.80
2022-10-13T02:55:39.145Z,21.60
2022-10-13T02:58:07.423Z,20.30
2022-10-13T03:00:35.546Z,21.20
2022-10-13T03:03:03.668Z,21.00
2022-10-13T03:05:31.738Z,20.80
2022-10-13T03:07:59.823Z,22.40
2022-10-13T03:10:28.290Z,45.30
2022-10-13T03:12:56.361Z,45.50
2022-10-13T03:15:24.945Z,47.00
2022-10-13T03:17:55.883Z,49.70
2022-10-13T03:20:23.855Z,36.90
2022-10-13T03:22:51.924Z,31.30
2022-10-13T03:25:19.995Z,24.50
2022-10-13T03:27:48.171Z,20.80
2022-10-13T03:30:16.239Z,20.80
2022-10-13T03:32:44.208Z,19.10
2022-10-13T03:35:12.280Z,21.50
2022-10-13T03:37:40.352Z,21.80
2022-10-13T03:40:09.956Z,19.70
2022-10-13T03:42:38.646Z,20.80
2022-10-13T03:45:07.537Z,20.20
2022-10-13T03:47:37.531Z,19.60
2022-10-13T03:50:06.537Z,20.60
2022-10-13T03:52:34.616Z,20.80
2022-10-13T03:55:02.894Z,18.70
2022-10-13T03:57:30.964Z,19.80
2022-10-13T03:59:59.137Z,21.60
2022-10-13T04:02:28.029Z,19.80
2022-10-13T04:04:56.918Z,21.70
2022-10-13T04:07:24.990Z,21.20
2022-10-13T04:09:52.959Z,22.30
2022-10-13T04:12:21.396Z,23.20
2022-10-13T04:14:49.613Z,22.20
2022-10-13T04:17:17.685Z,22.50
2022-10-13T04:19:45.757Z,21.90
2022-10-13T04:22:13.931Z,22.10
2022-10-13T04:24:42.615Z,21.50
2022-10-13T04:27:10.791Z,21.80
2022-10-13T04:29:39.071Z,17.40
2022-10-13T04:32:07.034Z,18.70
2022-10-13T04:34:35.105Z,19.00
2022-10-13T04:37:03.073Z,20.20
2022-10-13T04:39:31.145Z,20.40
2022-10-13T04:41:59.320Z,20.80
2022-10-13T04:44:27.394Z,19.10
2022-10-13T04:46:55.627Z,20.80
2022-10-13T04:49:25.047Z,26.50
2022-10-13T04:51:53.344Z,44.10
2022-10-13T04:54:21.418Z,22.80
2022-10-13T04:56:49.385Z,26.60
2022-10-13T04:59:17.456Z,21.20
2022-10-13T05:01:45.529Z,19.20
2022-10-13T05:04:14.418Z,21.80
2022-10-13T05:07:05.375Z,19.00
2022-10-13T05:09:31.041Z,18.30
2022-10-13T05:11:59.116Z,19.10
2022-10-13T05:14:27.394Z,18.30
2022-10-13T05:16:55.460Z,19.60
2022-10-13T05:19:23.942Z,18.50
2022-10-13T05:21:53.247Z,17.90
2022-10-13T05:24:31.182Z,17.70
2022-10-13T05:26:59.316Z,16.30
2022-10-13T05:29:27.902Z,16.50
2022-10-13T05:31:55.972Z,20.70
2022-10-13T05:34:24.041Z,18.80
2022-10-13T05:36:52.113Z,19.80
2022-10-13T05:39:20.493Z,21.20
2022-10-13T05:41:48.462Z,22.40
2022-10-13T05:44:22.267Z,21.50
2022-10-13T05:46:57.155Z,22.00
2022-10-13T05:49:25.374Z,18.80
2022-10-13T05:52:01.541Z,19.50
2022-10-13T05:54:42.203Z,19.70
2022-10-13T05:57:20.831Z,18.70
2022-10-13T06:00:09.063Z,18.90
2022-10-13T06:02:50.229Z,18.30
2022-10-13T06:05:21.899Z,19.20
2022-10-13T06:07:56.135Z,18.50
2022-10-13T06:10:24.772Z,20.60
2022-10-13T06:12:52.768Z,20.20
2022-10-13T06:15:25.670Z,18.10
2022-10-13T06:17:57.509Z,17.80
2022-10-13T06:20:27.629Z,16.60
2022-10-13T06:22:56.622Z,17.60
2022-10-13T06:25:24.572Z,18.30
2022-10-13T06:27:52.560Z,19.90
2022-10-13T06:30:20.529Z,21.60
2022-10-13T06:32:48.624Z,22.90
2022-10-13T06:35:16.599Z,23.40
2022-10-13T06:37:46.573Z,23.20
2022-10-13T06:40:16.081Z,20.50
2022-10-13T06:42:49.906Z,18.60
2022-10-13T06:45:19.687Z,18.80
2022-10-13T06:47:47.780Z,19.20
2022-10-13T06:50:16.615Z,19.30
2022-10-13T06:52:44.568Z,17.70
2022-10-13T06:55:12.916Z,17.30
2022-10-13T06:57:40.987Z,17.50
2022-10-13T07:00:09.771Z,18.50
2022-10-13T07:02:38.767Z,18.60
2022-10-13T07:05:07.442Z,17.00
2022-10-13T07:07:35.422Z,17.10
2022-10-13T07:10:03.980Z,14.80
2022-10-13T07:12:31.976Z,15.60
2022-10-13T07:15:00.046Z,16.20
2022-10-13T07:17:28.117Z,15.60
2022-10-13T07:19:57.980Z,15.00
2022-10-13T07:22:27.127Z,17.30
2022-10-13T07:24:55.198Z,15.10
2022-10-13T07:27:24.269Z,15.50
2022-10-13T07:29:52.467Z,14.60
2022-10-13T07:32:20.644Z,15.60
2022-10-13T07:34:53.423Z,14.20
2022-10-13T07:37:22.151Z,15.50
2022-10-13T07:39:51.408Z,16.00
2022-10-13T07:42:19.481Z,15.90
2022-10-13T07:44:47.553Z,15.80
2022-10-13T07:47:15.629Z,16.50
2022-10-13T07:49:44.923Z,16.00
2022-10-13T07:52:12.995Z,16.60
2022-10-13T07:54:41.065Z,16.20
2022-10-13T07:57:09.442Z,15.90
2022-10-13T07:59:37.515Z,18.80
2022-10-13T08:02:05.586Z,16.20
2022-10-13T08:04:34.771Z,19.90
2022-10-13T08:07:06.019Z,15.90
2022-10-13T08:09:35.169Z,16.80
2022-10-13T08:12:03.757Z,23.50
2022-10-13T08:14:32.637Z,23.60
2022-10-13T08:17:01.488Z,19.10
2022-10-13T08:19:29.560Z,16.50
2022-10-13T08:21:59.193Z,17.60
2022-10-13T08:24:28.672Z,19.60
2022-10-13T08:26:56.950Z,18.90
2022-10-13T08:29:25.238Z,13.90
2022-10-13T08:31:54.371Z,13.70
2022-10-13T08:34:24.353Z,14.90
2022-10-13T08:36:54.911Z,20.30
2022-10-13T08:39:25.518Z,19.50
2022-10-13T08:41:56.639Z,19.40
2022-10-13T08:47:46.338Z,17.50
2022-10-13T08:50:18.404Z,16.30
2022-10-13T08:52:58.123Z,15.70
2022-10-13T08:55:35.443Z,14.00
2022-10-13T08:58:12.928Z,17.20
2022-10-13T09:00:42.238Z,16.20
2022-10-13T09:03:29.450Z,15.10
2022-10-13T09:06:11.653Z,16.80
2022-10-13T09:08:45.029Z,15.40
2022-10-13T09:11:13.426Z,14.80
2022-10-13T09:13:41.599Z,16.50
2022-10-13T09:16:09.672Z,18.20
2022-10-13T09:18:38.677Z,17.40
2022-10-13T09:21:23.633Z,18.90
2022-10-13T09:23:54.241Z,20.80
2022-10-13T09:26:25.319Z,14.30
2022-10-13T09:28:53.546Z,15.00
2022-10-13T09:31:30.468Z,13.30
2022-10-13T09:34:12.658Z,16.90
2022-10-13T09:37:00.096Z,15.30
2022-10-13T09:39:28.360Z,17.60
2022-10-13T09:42:25.514Z,54.80
2022-10-13T09:45:03.178Z,27.90
2022-10-13T09:47:33.347Z,16.00
2022-10-13T09:50:16.427Z,12.50
2022-10-13T09:52:48.376Z,11.80
2022-10-13T09:55:34.922Z,12.60
2022-10-13T09:58:22.755Z,11.50
2022-10-13T10:00:53.180Z,10.30
2022-10-13T10:03:32.585Z,9.30
2022-10-13T10:06:03.405Z,9.90
2022-10-13T10:09:01.430Z,10.50
2022-10-13T10:11:33.809Z,9.70
2022-10-13T10:14:28.988Z,10.10
2022-10-13T10:17:15.923Z,9.30
2022-10-13T10:19:49.827Z,11.60
2022-10-13T10:22:32.753Z,9.20
2022-10-13T10:25:19.455Z,9.40
2022-10-13T10:28:05.344Z,10.10
2022-10-13T10:30:37.308Z,12.70
2022-10-13T10:33:13.672Z,10.70
2022-10-13T10:35:49.628Z,10.40
2022-10-13T10:38:29.582Z,14.20
2022-10-13T10:41:19.053Z,14.00
2022-10-13T10:43:48.760Z,11.30
2022-10-13T10:46:23.669Z,10.30
2022-10-13T10:48:57.091Z,11.20
2022-10-13T10:51:32.020Z,11.10
2022-10-13T10:54:16.783Z,10.60
2022-10-13T10:57:07.691Z,11.20
2022-10-13T11:00:06.591Z,12.30
2022-10-13T11:02:49.913Z,12.30
2022-10-13T11:05:18.472Z,11.70
2022-10-13T11:07:46.772Z,12.90
2022-10-13T11:10:16.595Z,11.50
2022-10-13T11:12:53.464Z,12.40
2022-10-13T11:15:27.677Z,13.70
2022-10-13T11:17:55.748Z,19.30
2022-10-13T11:20:26.789Z,12.50
2022-10-13T11:22:57.831Z,10.20
2022-10-13T11:25:46.078Z,10.80
2022-10-13T11:28:23.210Z,11.90
2022-10-13T11:30:53.001Z,12.50
2022-10-13T11:33:39.067Z,12.00
2022-10-13T11:36:39.699Z,12.10
2022-10-13T11:39:28.910Z,14.00
2022-10-13T11:42:12.602Z,11.40
2022-10-13T11:45:02.383Z,11.60
2022-10-13T11:47:45.506Z,10.70
2022-10-13T11:50:37.541Z,10.90
2022-10-13T11:55:39.930Z,11.50
2022-10-13T11:58:17.115Z,12.70
2022-10-13T12:01:01.056Z,12.90
2022-10-13T12:03:30.769Z,12.20
2022-10-13T12:06:26.691Z,11.20
2022-10-13T12:08:54.762Z,10.20
2022-10-13T12:11:44.134Z,12.90
2022-10-13T12:14:26.279Z,17.30
2022-10-13T12:16:59.427Z,16.60
2022-10-13T12:19:31.491Z,13.20
2022-10-13T12:22:01.576Z,12.00
2022-10-13T12:24:30.992Z,12.10
2022-10-13T12:26:59.292Z,10.60
2022-10-13T12:29:34.863Z,12.00
2022-10-13T12:32:22.056Z,10.40
2022-10-13T12:34:50.245Z,11.50
2022-10-13T12:37:33.875Z,10.70
2022-10-13T12:40:04.853Z,10.70
2022-10-13T12:42:36.260Z,15.90
2022-10-13T12:45:05.272Z,14.80
2022-10-13T12:47:45.403Z,13.20
2022-10-13T12:50:33.337Z,12.40
2022-10-13T12:53:16.360Z,11.70
2022-10-13T12:55:52.217Z,11.40
2022-10-13T12:58:25.610Z,9.80
2022-10-13T13:01:27.678Z,10.40
2022-10-13T13:04:01.689Z,8.30
2022-10-13T13:06:36.416Z,10.20
2022-10-13T13:09:30.707Z,11.30
2022-10-13T13:12:10.958Z,11.60
2022-10-13T13:14:49.503Z,12.10
2022-10-13T13:17:27.649Z,10.50
2022-10-13T13:20:21.354Z,10.30
2022-10-13T13:22:50.971Z,10.30
2022-10-13T13:25:19.448Z,10.00
2022-10-13T13:27:47.907Z,11.60
2022-10-13T13:30:20.501Z,11.00
2022-10-13T13:32:49.493Z,11.90
2022-10-13T13:35:17.874Z,12.20
2022-10-13T13:37:50.049Z,11.10
2022-10-13T13:40:26.610Z,10.90
2022-10-13T13:42:55.933Z,10.00
2022-10-13T13:47:59.600Z,10.20
2022-10-13T13:50:34.256Z,10.90
2022-10-13T13:53:02.960Z,11.50
2022-10-13T13:55:31.422Z,11.50
2022-10-13T13:57:59.601Z,11.30
2022-10-13T14:00:27.668Z,11.60
2022-10-13T14:02:57.869Z,12.00
2022-10-13T14:05:26.402Z,13.00
2022-10-13T14:07:57.925Z,11.60
2022-10-13T14:10:26.866Z,10.20
2022-10-13T14:12:54.891Z,13.00
2022-10-13T14:15:27.263Z,12.20
2022-10-13T14:17:57.073Z,11.40
2022-10-13T14:20:25.140Z,10.80
2022-10-13T14:22:53.827Z,11.90
2022-10-13T14:25:22.000Z,11.10
2022-10-13T14:27:50.086Z,11.90
2022-10-13T14:30:18.355Z,12.20
2022-10-13T14:32:46.328Z,11.60
2022-10-13T14:35:14.387Z,13.20
2022-10-13T14:37:42.463Z,12.70
2022-10-13T14:40:11.247Z,12.20
2022-10-13T14:42:39.830Z,12.50
2022-10-13T14:45:09.833Z,13.00
2022-10-13T14:47:37.814Z,12.80
2022-10-13T14:50:06.615Z,13.10
2022-10-13T14:52:34.777Z,12.60
2022-10-13T14:55:03.052Z,13.10
2022-10-13T14:57:30.991Z,13.50
2022-10-13T15:00:03.047Z,12.30
2022-10-13T15:02:33.616Z,12.90
2022-10-13T15:05:01.892Z,12.90
2022-10-13T15:07:31.400Z,12.90
2022-10-13T15:10:06.743Z,15.00
2022-10-13T15:12:34.919Z,19.60
2022-10-13T15:15:04.116Z,19.10
2022-10-13T15:17:33.512Z,18.90
2022-10-13T15:20:01.994Z,20.60
2022-10-13T15:22:29.963Z,20.30
2022-10-13T15:24:58.238Z,24.70
2022-10-13T15:27:26.413Z,40.40
2022-10-13T15:29:54.483Z,42.20
2022-10-13T15:32:22.803Z,44.50
2022-10-13T15:34:52.878Z,39.10
2022-10-13T15:37:21.156Z,35.20
2022-10-13T15:39:52.079Z,32.60
2022-10-13T15:42:24.260Z,29.00
2022-10-13T15:47:40.678Z,30.80
2022-10-13T15:50:09.906Z,31.40
2022-10-13T15:52:41.457Z,31.80
2022-10-13T15:57:39.215Z,34.90
2022-10-13T16:00:09.041Z,33.00
2022-10-13T16:02:41.600Z,34.50
2022-10-13T16:05:12.129Z,34.20
2022-10-13T16:07:41.535Z,34.80
2022-10-13T16:10:12.488Z,32.60
2022-10-13T16:12:49.267Z,35.50
2022-10-13T16:15:18.465Z,39.10
2022-10-13T16:17:46.627Z,42.00
2022-10-13T16:20:15.097Z,42.50
2022-10-13T16:22:43.168Z,48.40
2022-10-13T16:25:12.163Z,56.30
2022-10-13T16:27:44.084Z,64.30
2022-10-13T16:30:13.554Z,64.10
2022-10-13T16:32:41.598Z,66.20
2022-10-13T16:35:10.110Z,68.90
2022-10-13T16:37:38.255Z,71.80
2022-10-13T16:40:07.244Z,66.60
2022-10-13T16:42:36.446Z,73.20
2022-10-13T16:45:05.541Z,67.90
2022-10-13T16:47:33.544Z,54.00
2022-10-13T16:50:01.987Z,41.40
2022-10-13T16:52:29.956Z,43.80
2022-10-13T16:54:58.335Z,98.10
2022-10-13T16:57:26.509Z,84.70
2022-10-13T16:59:54.584Z,64.60
2022-10-13T17:02:22.651Z,53.40
2022-10-13T17:04:50.829Z,44.50
2022-10-13T17:07:19.049Z,40.50
2022-10-13T17:09:47.582Z,43.80
2022-10-13T17:12:15.866Z,39.80
2022-10-13T17:14:44.647Z,38.70
2022-10-13T17:17:12.616Z,39.40
2022-10-13T17:19:40.687Z,36.40
2022-10-13T17:22:08.656Z,39.20
2022-10-13T17:24:37.037Z,36.60
2022-10-13T17:27:05.107Z,38.10
2022-10-13T17:29:35.328Z,41.50
2022-10-13T17:32:03.603Z,46.00
2022-10-13T17:34:31.674Z,42.40
2022-10-13T17:37:02.275Z,42.80
2022-10-13T17:39:32.226Z,45.90
2022-10-13T17:42:00.190Z,45.10
2022-10-13T17:44:28.466Z,45.50
2022-10-13T17:46:56.537Z,42.60
2022-10-13T17:49:26.914Z,40.90
2022-10-13T17:51:56.164Z,40.10
2022-10-13T17:54:25.052Z,44.10
2022-10-13T17:56:55.479Z,49.20
2022-10-13T17:59:23.856Z,43.70
2022-10-13T18:01:51.973Z,46.80
2022-10-13T18:04:21.845Z,43.90
2022-10-13T18:06:49.914Z,45.40
2022-10-13T18:09:20.344Z,54.20
2022-10-13T18:11:50.996Z,55.50
2022-10-13T18:14:21.399Z,49.70
2022-10-13T18:16:51.131Z,48.40
2022-10-13T18:19:19.663Z,47.00
2022-10-13T18:21:48.182Z,43.00
2022-10-13T18:24:16.353Z,43.70
2022-10-13T18:26:45.236Z,46.10
2022-10-13T18:29:14.025Z,58.70
2022-10-13T18:31:42.823Z,56.20
2022-10-13T18:34:14.469Z,49.80
2022-10-13T18:36:48.618Z,45.70
2022-10-13T18:39:19.828Z,51.10
2022-10-13T18:41:50.867Z,57.80
2022-10-13T18:44:19.879Z,135.70
2022-10-13T18:46:53.154Z,47.70
2022-10-13T18:49:23.991Z,40.60
2022-10-13T18:51:52.269Z,108.70
2022-10-13T18:54:20.647Z,73.10
2022-10-13T18:56:48.716Z,65.00
2022-10-13T18:59:19.191Z,55.50
2022-10-13T19:01:47.913Z,42.20
2022-10-13T19:04:17.141Z,39.30
2022-10-13T19:06:46.629Z,37.70
2022-10-13T19:09:17.825Z,39.30
2022-10-13T19:11:46.238Z,40.10
2022-10-13T19:14:17.301Z,44.40
2022-10-13T19:16:45.679Z,50.30
2022-10-13T19:19:14.418Z,58.70
2022-10-13T19:21:42.742Z,62.40
2022-10-13T19:24:12.146Z,57.90
2022-10-13T19:26:40.727Z,66.20
2022-10-13T19:29:12.280Z,61.60
2022-10-13T19:31:42.006Z,64.70
2022-10-13T19:34:12.568Z,60.10
2022-10-13T19:36:43.973Z,63.90
2022-10-13T19:39:23.537Z,63.70
2022-10-13T19:41:54.142Z,71.00
2022-10-13T19:44:24.159Z,69.20
2022-10-13T19:46:53.504Z,74.60
2022-10-13T19:49:25.425Z,69.30
2022-10-13T19:51:55.134Z,65.00
2022-10-13T19:54:24.238Z,63.60
2022-10-13T19:56:52.502Z,55.00
2022-10-13T19:59:21.125Z,56.20
2022-10-13T20:01:49.360Z,60.10
2022-10-13T20:04:20.677Z,58.60
2022-10-13T20:06:50.309Z,63.10
2022-10-13T20:09:19.003Z,55.70
2022-10-13T20:11:51.071Z,51.80
2022-10-13T20:16:48.234Z,42.30
2022-10-13T20:19:19.618Z,46.30
2022-10-13T20:21:51.820Z,49.60
2022-10-13T20:24:21.868Z,47.30
2022-10-13T20:26:50.556Z,46.40
2022-10-13T20:29:22.312Z,45.30
2022-10-13T20:31:50.486Z,52.10
2022-10-13T20:34:18.557Z,44.80
2022-10-13T20:36:47.165Z,43.50
2022-10-13T20:39:15.621Z,41.20
2022-10-13T20:41:43.962Z,40.50
2022-10-13T20:44:12.584Z,43.00
2022-10-13T20:46:40.552Z,43.20
2022-10-13T20:49:12.000Z,45.40
2022-10-13T20:51:42.224Z,47.70
2022-10-13T20:54:13.065Z,41.40
2022-10-13T20:56:41.843Z,36.50
2022-10-13T20:59:12.688Z,39.60
2022-10-13T21:01:41.042Z,37.80
2022-10-13T21:04:10.365Z,38.70
2022-10-13T21:06:38.950Z,35.00
2022-10-13T21:09:07.399Z,38.10
2022-10-13T21:11:36.425Z,37.30
2022-10-13T21:14:07.171Z,36.10
2022-10-13T21:16:38.775Z,36.20
2022-10-13T21:19:15.251Z,37.50
2022-10-13T21:21:43.451Z,39.70
2022-10-13T21:24:11.834Z,36.70
2022-10-13T21:26:41.660Z,37.00
2022-10-13T21:29:15.448Z,34.90
2022-10-13T21:31:43.825Z,33.60
2022-10-13T21:34:13.551Z,33.50
2022-10-13T21:36:44.624Z,31.70
2022-10-13T21:39:16.479Z,32.80
2022-10-13T21:41:45.233Z,31.10
2022-10-13T21:44:14.731Z,31.60
2022-10-13T21:46:43.005Z,30.40
2022-10-13T21:49:11.179Z,32.00
2022-10-13T21:51:40.791Z,29.70
2022-10-13T21:54:12.864Z,29.50
2022-10-13T21:56:42.356Z,30.60
2022-10-13T21:59:12.789Z,28.80
2022-10-13T22:01:41.781Z,30.40
2022-10-13T22:04:14.772Z,28.60
2022-10-13T22:06:43.038Z,30.40
2022-10-13T22:09:11.525Z,30.40
2022-10-13T22:11:40.616Z,31.80
2022-10-13T22:14:12.383Z,29.30
2022-10-13T22:16:46.485Z,31.00
2022-10-13T22:19:16.931Z,31.30
2022-10-13T22:21:49.593Z,32.10
2022-10-13T22:24:21.251Z,32.30
2022-10-13T22:26:50.336Z,32.00
2022-10-13T22:29:20.978Z,32.00
2022-10-13T22:31:50.478Z,33.60
2022-10-13T22:34:18.550Z,31.00
2022-10-13T22:36:46.523Z,32.30
2022-10-13T22:39:15.000Z,31.20
2022-10-13T22:41:43.181Z,34.50
2022-10-13T22:44:11.316Z,33.30
2022-10-13T22:46:40.430Z,41.30
2022-10-13T22:49:13.565Z,36.70
2022-10-13T22:51:41.807Z,39.70
2022-10-13T22:54:10.200Z,40.30
2022-10-13T22:56:38.257Z,40.10
2022-10-13T22:59:08.286Z,38.70
2022-10-13T23:01:37.357Z,37.40
2022-10-13T23:04:05.995Z,38.00
2022-10-13T23:06:35.377Z,38.50
2022-10-13T23:09:10.496Z,35.80
2022-10-13T23:11:39.594Z,35.20
2022-10-13T23:14:09.709Z,35.30
2022-10-13T23:16:38.291Z,37.20
2022-10-13T23:19:06.572Z,35.00
2022-10-13T23:21:34.842Z,35.60
2022-10-13T23:24:05.758Z,38.20
2022-10-13T23:26:34.763Z,36.10
2022-10-13T23:29:04.723Z,35.70
2022-10-13T23:31:33.171Z,38.80
2022-10-13T23:34:01.342Z,38.90
2022-10-13T23:36:32.037Z,36.40
2022-10-13T23:39:03.225Z,35.00
2022-10-13T23:41:33.236Z,34.60
2022-10-13T23:44:01.615Z,33.90
2022-10-13T23:46:29.789Z,33.20
2022-10-13T23:48:57.860Z,32.70
2022-10-13T23:51:26.928Z,33.60
2022-10-13T23:53:55.948Z,34.30
2022-10-13T23:56:24.123Z,34.10
2022-10-13T23:58:52.099Z,32.20
